sensor_id;sensor_type;location;lat;lon;timestamp;temperature;humidity
18779;DHT22;9518;51.720;14.384;2023-06-22T00:02:22;18.10;1.00
18779;DHT22;9518;51.720;14.384;2023-06-22T00:04:49;18.10;99.90
18779;DHT22;9518;51.720;14.384;2023-06-22T00:07:16;18.00;26.60
18779;DHT22;9518;51.720;14.384;2023-06-22T00:09:43;18.00;1.00
18779;DHT22;9518;51.720;14.384;2023-06-22T00:12:10;18.00;99.90
18779;DHT22;9518;51.720;14.384;2023-06-22T00:14:37;17.90;1.00
18779;DHT22;9518;51.720;14.384;2023-06-22T00:17:04;17.90;99.90
18779;DHT22;9518;51.720;14.384;2023-06-22T00:19:34;17.80;1.00
18779;DHT22;9518;51.720;14.384;2023-06-22T00:22:02;17.80;1.00
18779;DHT22;9518;51.720;14.384;2023-06-22T00:24:29;17.70;1.00
18779;DHT22;9518;51.720;14.384;2023-06-22T00:26:56;17.60;1.00
18779;DHT22;9518;51.720;14.384;2023-06-22T00:29:23;17.50;1.00
18779;DHT22;9518;51.720;14.384;2023-06-22T00:31:50;17.50;99.90
18779;DHT22;9518;51.720;14.384;2023-06-22T00:34:17;17.50;99.90
18779;DHT22;9518;51.720;14.384;2023-06-22T00:36:45;17.50;1.00
18779;DHT22;9518;51.720;14.384;2023-06-22T00:39:13;17.60;1.00
18779;DHT22;9518;51.720;14.384;2023-06-22T00:41:40;17.60;99.90
18779;DHT22;9518;51.720;14.384;2023-06-22T00:44:07;17.50;1.00
18779;DHT22;9518;51.720;14.384;2023-06-22T00:46:34;17.50;99.90
18779;DHT22;9518;51.720;14.384;2023-06-22T00:49:01;17.50;1.00
18779;DHT22;9518;51.720;14.384;2023-06-22T00:51:31;17.50;1.00
18779;DHT22;9518;51.720;14.384;2023-06-22T00:53:59;17.50;1.00
18779;DHT22;9518;51.720;14.384;2023-06-22T00:56:27;17.50;99.90
18779;DHT22;9518;51.720;14.384;2023-06-22T00:58:55;17.40;1.00
18779;DHT22;9518;51.720;14.384;2023-06-22T01:01:25;17.30;1.00
18779;DHT22;9518;51.720;14.384;2023-06-22T01:03:52;17.30;1.00
18779;DHT22;9518;51.720;14.384;2023-06-22T01:06:26;17.30;1.00
18779;DHT22;9518;51.720;14.384;2023-06-22T01:09:02;17.20;1.00
18779;DHT22;9518;51.720;14.384;2023-06-22T01:11:37;17.20;99.90
18779;DHT22;9518;51.720;14.384;2023-06-22T01:14:12;17.20;1.00
18779;DHT22;9518;51.720;14.384;2023-06-22T01:16:41;17.20;1.00
18779;DHT22;9518;51.720;14.384;2023-06-22T01:19:22;17.10;1.00
18779;DHT22;9518;51.720;14.384;2023-06-22T01:21:53;17.00;1.00
18779;DHT22;9518;51.720;14.384;2023-06-22T01:24:27;16.90;99.90
18779;DHT22;9518;51.720;14.384;2023-06-22T01:27:00;16.90;99.90
18779;DHT22;9518;51.720;14.384;2023-06-22T01:29:33;16.90;99.90
18779;DHT22;9518;51.720;14.384;2023-06-22T01:32:03;16.90;1.00
18779;DHT22;9518;51.720;14.384;2023-06-22T01:34:31;16.80;99.90
18779;DHT22;9518;51.720;14.384;2023-06-22T01:36:59;16.80;1.00
18779;DHT22;9518;51.720;14.384;2023-06-22T01:39:27;16.80;99.90
18779;DHT22;9518;51.720;14.384;2023-06-22T01:41:55;16.70;99.90
18779;DHT22;9518;51.720;14.384;2023-06-22T01:44:24;16.70;99.90
18779;DHT22;9518;51.720;14.384;2023-06-22T01:46:53;16.70;1.00
18779;DHT22;9518;51.720;14.384;2023-06-22T01:49:21;16.70;1.00
18779;DHT22;9518;51.720;14.384;2023-06-22T01:51:49;16.60;1.00
18779;DHT22;9518;51.720;14.384;2023-06-22T01:54:16;16.60;99.90
18779;DHT22;9518;51.720;14.384;2023-06-22T01:56:44;16.60;1.00
18779;DHT22;9518;51.720;14.384;2023-06-22T01:59:15;16.50;1.00
18779;DHT22;9518;51.720;14.384;2023-06-22T02:01:47;16.60;1.00
18779;DHT22;9518;51.720;14.384;2023-06-22T02:04:21;16.50;1.00
18779;DHT22;9518;51.720;14.384;2023-06-22T02:06:53;16.50;1.00
18779;DHT22;9518;51.720;14.384;2023-06-22T02:09:22;16.40;99.90
18779;DHT22;9518;51.720;14.384;2023-06-22T02:11:51;16.40;99.90
18779;DHT22;9518;51.720;14.384;2023-06-22T02:14:21;16.40;1.00
18779;DHT22;9518;51.720;14.384;2023-06-22T02:16:50;16.40;1.00
18779;DHT22;9518;51.720;14.384;2023-06-22T02:19:18;16.40;1.00
18779;DHT22;9518;51.720;14.384;2023-06-22T02:21:49;16.40;1.00
18779;DHT22;9518;51.720;14.384;2023-06-22T02:24:16;16.40;1.00
18779;DHT22;9518;51.720;14.384;2023-06-22T02:26:43;16.30;1.00
18779;DHT22;9518;51.720;14.384;2023-06-22T02:29:12;16.30;1.00
18779;DHT22;9518;51.720;14.384;2023-06-22T02:31:39;16.20;91.00
18779;DHT22;9518;51.720;14.384;2023-06-22T02:34:06;16.20;1.00
18779;DHT22;9518;51.720;14.384;2023-06-22T02:36:35;16.20;1.00
18779;DHT22;9518;51.720;14.384;2023-06-22T02:39:02;16.10;1.00
18779;DHT22;9518;51.720;14.384;2023-06-22T02:41:29;16.10;1.00
18779;DHT22;9518;51.720;14.384;2023-06-22T02:43:56;16.10;1.00
18779;DHT22;9518;51.720;14.384;2023-06-22T02:46:23;16.00;1.00
18779;DHT22;9518;51.720;14.384;2023-06-22T02:48:50;16.10;1.00
18779;DHT22;9518;51.720;14.384;2023-06-22T02:51:17;16.00;1.00
18779;DHT22;9518;51.720;14.384;2023-06-22T02:53:46;16.10;1.00
18779;DHT22;9518;51.720;14.384;2023-06-22T02:56:13;16.10;1.00
18779;DHT22;9518;51.720;14.384;2023-06-22T02:58:40;16.10;1.00
18779;DHT22;9518;51.720;14.384;2023-06-22T03:01:07;16.10;1.00
18779;DHT22;9518;51.720;14.384;2023-06-22T03:03:34;16.00;1.00
18779;DHT22;9518;51.720;14.384;2023-06-22T03:06:01;16.00;99.00
18779;DHT22;9518;51.720;14.384;2023-06-22T03:08:29;16.00;1.00
18779;DHT22;9518;51.720;14.384;2023-06-22T03:10:57;16.10;1.00
18779;DHT22;9518;51.720;14.384;2023-06-22T03:13:24;16.20;99.90
18779;DHT22;9518;51.720;14.384;2023-06-22T03:15:51;16.20;89.30
18779;DHT22;9518;51.720;14.384;2023-06-22T03:18:18;16.30;1.00
18779;DHT22;9518;51.720;14.384;2023-06-22T03:20:45;16.30;1.00
18779;DHT22;9518;51.720;14.384;2023-06-22T03:23:12;16.30;1.00
18779;DHT22;9518;51.720;14.384;2023-06-22T03:25:40;16.30;1.00
18779;DHT22;9518;51.720;14.384;2023-06-22T03:28:09;16.40;1.00
18779;DHT22;9518;51.720;14.384;2023-06-22T03:30:36;16.40;1.00
18779;DHT22;9518;51.720;14.384;2023-06-22T03:33:03;16.50;1.00
18779;DHT22;9518;51.720;14.384;2023-06-22T03:35:29;16.50;99.90
18779;DHT22;9518;51.720;14.384;2023-06-22T03:37:56;16.60;99.90
18779;DHT22;9518;51.720;14.384;2023-06-22T03:40:23;16.50;1.00
18779;DHT22;9518;51.720;14.384;2023-06-22T03:42:50;16.60;1.00
18779;DHT22;9518;51.720;14.384;2023-06-22T03:45:19;16.60;1.00
18779;DHT22;9518;51.720;14.384;2023-06-22T03:47:46;16.60;1.00
18779;DHT22;9518;51.720;14.384;2023-06-22T03:50:12;16.70;1.00
18779;DHT22;9518;51.720;14.384;2023-06-22T03:52:40;16.90;1.00
18779;DHT22;9518;51.720;14.384;2023-06-22T03:55:07;17.00;99.90
18779;DHT22;9518;51.720;14.384;2023-06-22T03:57:34;17.10;99.90
18779;DHT22;9518;51.720;14.384;2023-06-22T04:00:01;17.20;99.90
18779;DHT22;9518;51.720;14.384;2023-06-22T04:02:32;17.40;1.00
18779;DHT22;9518;51.720;14.384;2023-06-22T04:04:59;17.40;1.00
18779;DHT22;9518;51.720;14.384;2023-06-22T04:07:26;17.50;1.00
18779;DHT22;9518;51.720;14.384;2023-06-22T04:09:53;17.50;1.00
18779;DHT22;9518;51.720;14.384;2023-06-22T04:12:20;17.70;1.00
18779;DHT22;9518;51.720;14.384;2023-06-22T04:14:47;17.80;1.00
18779;DHT22;9518;51.720;14.384;2023-06-22T04:17:15;18.10;99.90
18779;DHT22;9518;51.720;14.384;2023-06-22T04:19:44;18.20;99.90
18779;DHT22;9518;51.720;14.384;2023-06-22T04:22:11;18.30;99.90
18779;DHT22;9518;51.720;14.384;2023-06-22T04:24:38;18.50;1.00
18779;DHT22;9518;51.720;14.384;2023-06-22T04:27:05;18.60;1.00
18779;DHT22;9518;51.720;14.384;2023-06-22T04:29:32;18.70;1.00
18779;DHT22;9518;51.720;14.384;2023-06-22T04:32:00;18.90;99.90
18779;DHT22;9518;51.720;14.384;2023-06-22T04:34:29;19.10;1.00
18779;DHT22;9518;51.720;14.384;2023-06-22T04:36:57;19.30;1.00
18779;DHT22;9518;51.720;14.384;2023-06-22T04:39:24;19.40;1.00
18779;DHT22;9518;51.720;14.384;2023-06-22T04:41:52;19.60;1.00
18779;DHT22;9518;51.720;14.384;2023-06-22T04:44:20;19.70;1.00
18779;DHT22;9518;51.720;14.384;2023-06-22T04:46:50;19.70;1.00
18779;DHT22;9518;51.720;14.384;2023-06-22T04:49:20;19.80;99.90
18779;DHT22;9518;51.720;14.384;2023-06-22T04:51:47;19.90;1.00
18779;DHT22;9518;51.720;14.384;2023-06-22T04:54:16;20.00;1.00
18779;DHT22;9518;51.720;14.384;2023-06-22T04:56:43;20.10;1.00
18779;DHT22;9518;51.720;14.384;2023-06-22T04:59:12;20.20;99.90
18779;DHT22;9518;51.720;14.384;2023-06-22T05:01:39;20.30;1.00
18779;DHT22;9518;51.720;14.384;2023-06-22T05:04:06;20.50;1.00
18779;DHT22;9518;51.720;14.384;2023-06-22T05:06:34;20.60;1.00
18779;DHT22;9518;51.720;14.384;2023-06-22T05:09:01;20.70;99.90
18779;DHT22;9518;51.720;14.384;2023-06-22T05:11:30;20.80;1.00
18779;DHT22;9518;51.720;14.384;2023-06-22T05:13:57;21.00;1.00
18779;DHT22;9518;51.720;14.384;2023-06-22T05:16:24;21.20;1.00
18779;DHT22;9518;51.720;14.384;2023-06-22T05:18:54;21.30;1.00
18779;DHT22;9518;51.720;14.384;2023-06-22T05:21:25;21.50;99.90
18779;DHT22;9518;51.720;14.384;2023-06-22T05:23:53;21.70;1.00
18779;DHT22;9518;51.720;14.384;2023-06-22T05:26:22;21.80;1.00
18779;DHT22;9518;51.720;14.384;2023-06-22T05:28:50;22.00;1.00
18779;DHT22;9518;51.720;14.384;2023-06-22T05:31:17;22.10;1.00
18779;DHT22;9518;51.720;14.384;2023-06-22T05:33:46;22.30;1.00
18779;DHT22;9518;51.720;14.384;2023-06-22T05:36:13;22.50;99.90
18779;DHT22;9518;51.720;14.384;2023-06-22T05:38:41;22.60;99.90
18779;DHT22;9518;51.720;14.384;2023-06-22T05:41:08;22.80;99.90
18779;DHT22;9518;51.720;14.384;2023-06-22T05:43:35;22.90;99.90
18779;DHT22;9518;51.720;14.384;2023-06-22T05:46:04;23.10;99.90
18779;DHT22;9518;51.720;14.384;2023-06-22T05:48:31;23.20;99.90
18779;DHT22;9518;51.720;14.384;2023-06-22T05:50:59;23.40;99.90
18779;DHT22;9518;51.720;14.384;2023-06-22T05:53:26;23.60;86.60
18779;DHT22;9518;51.720;14.384;2023-06-22T05:55:53;23.70;77.90
18779;DHT22;9518;51.720;14.384;2023-06-22T05:58:20;23.90;67.70
18779;DHT22;9518;51.720;14.384;2023-06-22T06:00:47;24.10;7.70
18779;DHT22;9518;51.720;14.384;2023-06-22T06:03:15;24.30;1.00
18779;DHT22;9518;51.720;14.384;2023-06-22T06:05:44;24.40;1.00
18779;DHT22;9518;51.720;14.384;2023-06-22T06:08:11;24.50;1.00
18779;DHT22;9518;51.720;14.384;2023-06-22T06:10:38;24.70;1.00
18779;DHT22;9518;51.720;14.384;2023-06-22T06:13:05;24.80;1.00
18779;DHT22;9518;51.720;14.384;2023-06-22T06:15:33;25.10;1.00
18779;DHT22;9518;51.720;14.384;2023-06-22T06:18:00;25.20;1.00
18779;DHT22;9518;51.720;14.384;2023-06-22T06:20:29;25.20;1.00
18779;DHT22;9518;51.720;14.384;2023-06-22T06:22:56;25.30;1.00
18779;DHT22;9518;51.720;14.384;2023-06-22T06:25:23;25.50;1.00
18779;DHT22;9518;51.720;14.384;2023-06-22T06:27:51;25.60;1.00
18779;DHT22;9518;51.720;14.384;2023-06-22T06:30:20;25.90;1.00
18779;DHT22;9518;51.720;14.384;2023-06-22T06:32:50;26.20;1.00
18779;DHT22;9518;51.720;14.384;2023-06-22T06:35:17;26.30;1.00
18779;DHT22;9518;51.720;14.384;2023-06-22T06:37:47;26.40;1.00
18779;DHT22;9518;51.720;14.384;2023-06-22T06:40:14;26.50;1.00
18779;DHT22;9518;51.720;14.384;2023-06-22T06:42:43;26.50;1.00
18779;DHT22;9518;51.720;14.384;2023-06-22T06:45:11;26.40;1.00
18779;DHT22;9518;51.720;14.384;2023-06-22T06:47:39;26.40;1.00
18779;DHT22;9518;51.720;14.384;2023-06-22T06:50:07;26.40;1.00
18779;DHT22;9518;51.720;14.384;2023-06-22T06:52:34;26.60;1.00
18779;DHT22;9518;51.720;14.384;2023-06-22T06:55:03;26.70;1.00
18779;DHT22;9518;51.720;14.384;2023-06-22T06:57:33;26.80;1.00
18779;DHT22;9518;51.720;14.384;2023-06-22T07:00:01;26.80;1.00
18779;DHT22;9518;51.720;14.384;2023-06-22T07:02:33;27.00;1.00
18779;DHT22;9518;51.720;14.384;2023-06-22T07:05:00;27.10;1.00
18779;DHT22;9518;51.720;14.384;2023-06-22T07:07:32;27.30;1.00
18779;DHT22;9518;51.720;14.384;2023-06-22T07:09:59;27.40;1.00
18779;DHT22;9518;51.720;14.384;2023-06-22T07:12:27;27.50;1.00
18779;DHT22;9518;51.720;14.384;2023-06-22T07:15:02;27.60;1.00
18779;DHT22;9518;51.720;14.384;2023-06-22T07:17:29;27.70;1.00
18779;DHT22;9518;51.720;14.384;2023-06-22T07:19:56;27.70;1.00
18779;DHT22;9518;51.720;14.384;2023-06-22T07:22:23;28.00;1.00
18779;DHT22;9518;51.720;14.384;2023-06-22T07:24:50;28.10;1.00
18779;DHT22;9518;51.720;14.384;2023-06-22T07:27:17;28.50;1.00
18779;DHT22;9518;51.720;14.384;2023-06-22T07:29:46;28.70;1.00
18779;DHT22;9518;51.720;14.384;2023-06-22T07:32:13;29.20;1.00
18779;DHT22;9518;51.720;14.384;2023-06-22T07:34:40;29.20;1.00
18779;DHT22;9518;51.720;14.384;2023-06-22T07:37:08;29.20;1.00
18779;DHT22;9518;51.720;14.384;2023-06-22T07:39:35;29.30;1.00
18779;DHT22;9518;51.720;14.384;2023-06-22T07:42:03;29.10;1.00
18779;DHT22;9518;51.720;14.384;2023-06-22T07:44:30;28.80;1.00
18779;DHT22;9518;51.720;14.384;2023-06-22T07:46:59;28.30;1.00
18779;DHT22;9518;51.720;14.384;2023-06-22T07:49:27;28.00;1.00
18779;DHT22;9518;51.720;14.384;2023-06-22T07:51:54;28.10;1.00
18779;DHT22;9518;51.720;14.384;2023-06-22T07:54:21;28.40;1.00
18779;DHT22;9518;51.720;14.384;2023-06-22T07:56:48;29.00;1.00
18779;DHT22;9518;51.720;14.384;2023-06-22T07:59:15;29.10;1.00
18779;DHT22;9518;51.720;14.384;2023-06-22T08:01:42;29.30;1.00
18779;DHT22;9518;51.720;14.384;2023-06-22T08:04:11;29.80;1.00
18779;DHT22;9518;51.720;14.384;2023-06-22T08:06:38;30.10;1.00
18779;DHT22;9518;51.720;14.384;2023-06-22T08:09:04;30.40;1.00
18779;DHT22;9518;51.720;14.384;2023-06-22T08:11:31;30.30;1.00
18779;DHT22;9518;51.720;14.384;2023-06-22T08:13:59;30.30;1.00
18779;DHT22;9518;51.720;14.384;2023-06-22T08:16:26;30.20;1.00
18779;DHT22;9518;51.720;14.384;2023-06-22T08:18:53;30.30;1.00
18779;DHT22;9518;51.720;14.384;2023-06-22T08:21:22;30.40;1.00
18779;DHT22;9518;51.720;14.384;2023-06-22T08:23:49;30.40;1.00
18779;DHT22;9518;51.720;14.384;2023-06-22T08:26:16;30.70;1.00
18779;DHT22;9518;51.720;14.384;2023-06-22T08:28:43;30.70;1.00
18779;DHT22;9518;51.720;14.384;2023-06-22T08:31:09;31.20;1.00
18779;DHT22;9518;51.720;14.384;2023-06-22T08:33:39;31.20;1.00
18779;DHT22;9518;51.720;14.384;2023-06-22T08:36:06;30.90;1.00
18779;DHT22;9518;51.720;14.384;2023-06-22T08:38:35;30.80;1.00
18779;DHT22;9518;51.720;14.384;2023-06-22T08:41:02;30.90;1.00
18779;DHT22;9518;51.720;14.384;2023-06-22T08:43:29;31.30;1.00
18779;DHT22;9518;51.720;14.384;2023-06-22T08:45:56;31.70;1.00
18779;DHT22;9518;51.720;14.384;2023-06-22T08:48:23;31.90;1.00
18779;DHT22;9518;51.720;14.384;2023-06-22T08:50:50;31.80;1.00
18779;DHT22;9518;51.720;14.384;2023-06-22T08:53:16;32.00;1.00
18779;DHT22;9518;51.720;14.384;2023-06-22T08:55:45;32.40;1.00
18779;DHT22;9518;51.720;14.384;2023-06-22T08:58:12;32.10;1.00
18779;DHT22;9518;51.720;14.384;2023-06-22T09:00:39;32.30;1.00
18779;DHT22;9518;51.720;14.384;2023-06-22T09:03:06;32.20;1.00
18779;DHT22;9518;51.720;14.384;2023-06-22T09:05:33;31.90;1.00
18779;DHT22;9518;51.720;14.384;2023-06-22T09:08:00;31.80;1.00
18779;DHT22;9518;51.720;14.384;2023-06-22T09:10:27;31.50;1.00
18779;DHT22;9518;51.720;14.384;2023-06-22T09:12:56;31.10;1.00
18779;DHT22;9518;51.720;14.384;2023-06-22T09:15:23;31.40;1.00
18779;DHT22;9518;51.720;14.384;2023-06-22T09:17:50;31.90;1.00
18779;DHT22;9518;51.720;14.384;2023-06-22T09:20:19;32.20;1.00
18779;DHT22;9518;51.720;14.384;2023-06-22T09:22:47;32.70;1.00
18779;DHT22;9518;51.720;14.384;2023-06-22T09:25:14;32.90;1.00
18779;DHT22;9518;51.720;14.384;2023-06-22T09:30:14;32.70;1.00
18779;DHT22;9518;51.720;14.384;2023-06-22T09:32:42;33.00;1.00
18779;DHT22;9518;51.720;14.384;2023-06-22T09:35:09;33.00;1.00
18779;DHT22;9518;51.720;14.384;2023-06-22T09:37:39;32.50;1.00
18779;DHT22;9518;51.720;14.384;2023-06-22T09:40:07;32.20;1.00
18779;DHT22;9518;51.720;14.384;2023-06-22T09:42:37;32.20;1.00
18779;DHT22;9518;51.720;14.384;2023-06-22T09:45:05;32.40;1.00
18779;DHT22;9518;51.720;14.384;2023-06-22T09:47:33;32.20;1.00
18779;DHT22;9518;51.720;14.384;2023-06-22T09:50:00;32.00;1.00
18779;DHT22;9518;51.720;14.384;2023-06-22T09:52:27;32.10;1.00
18779;DHT22;9518;51.720;14.384;2023-06-22T09:54:54;32.60;1.00
18779;DHT22;9518;51.720;14.384;2023-06-22T09:57:21;33.10;1.00
18779;DHT22;9518;51.720;14.384;2023-06-22T09:59:48;33.40;1.00
18779;DHT22;9518;51.720;14.384;2023-06-22T10:02:15;33.30;1.00
18779;DHT22;9518;51.720;14.384;2023-06-22T10:04:44;33.20;1.00
18779;DHT22;9518;51.720;14.384;2023-06-22T10:07:11;32.70;1.00
18779;DHT22;9518;51.720;14.384;2023-06-22T10:09:39;32.70;1.00
18779;DHT22;9518;51.720;14.384;2023-06-22T10:12:07;33.20;1.00
18779;DHT22;9518;51.720;14.384;2023-06-22T10:14:35;33.30;1.00
18779;DHT22;9518;51.720;14.384;2023-06-22T10:17:03;33.00;1.00
18779;DHT22;9518;51.720;14.384;2023-06-22T10:19:32;33.00;1.00
18779;DHT22;9518;51.720;14.384;2023-06-22T10:22:04;33.20;1.00
18779;DHT22;9518;51.720;14.384;2023-06-22T10:24:31;33.50;1.00
18779;DHT22;9518;51.720;14.384;2023-06-22T10:26:58;33.90;1.00
18779;DHT22;9518;51.720;14.384;2023-06-22T10:29:25;34.30;1.00
18779;DHT22;9518;51.720;14.384;2023-06-22T10:31:52;34.30;1.00
18779;DHT22;9518;51.720;14.384;2023-06-22T10:34:20;34.30;1.00
18779;DHT22;9518;51.720;14.384;2023-06-22T10:36:47;33.70;1.00
18779;DHT22;9518;51.720;14.384;2023-06-22T10:39:15;33.70;1.00
18779;DHT22;9518;51.720;14.384;2023-06-22T10:41:42;33.80;1.00
18779;DHT22;9518;51.720;14.384;2023-06-22T10:44:09;33.70;1.00
18779;DHT22;9518;51.720;14.384;2023-06-22T10:46:37;33.80;1.00
18779;DHT22;9518;51.720;14.384;2023-06-22T10:49:04;33.60;1.00
18779;DHT22;9518;51.720;14.384;2023-06-22T10:51:31;33.70;1.00
18779;DHT22;9518;51.720;14.384;2023-06-22T10:53:59;33.80;1.00
18779;DHT22;9518;51.720;14.384;2023-06-22T10:56:27;33.90;1.00
18779;DHT22;9518;51.720;14.384;2023-06-22T10:58:54;34.10;1.00
18779;DHT22;9518;51.720;14.384;2023-06-22T11:01:21;34.30;1.00
18779;DHT22;9518;51.720;14.384;2023-06-22T11:03:48;35.00;1.00
18779;DHT22;9518;51.720;14.384;2023-06-22T11:06:15;35.90;1.00
18779;DHT22;9518;51.720;14.384;2023-06-22T11:08:44;37.00;1.00
18779;DHT22;9518;51.720;14.384;2023-06-22T11:11:11;37.20;1.00
18779;DHT22;9518;51.720;14.384;2023-06-22T11:13:39;35.90;1.00
18779;DHT22;9518;51.720;14.384;2023-06-22T11:16:06;35.70;1.00
18779;DHT22;9518;51.720;14.384;2023-06-22T11:18:33;35.50;1.00
18779;DHT22;9518;51.720;14.384;2023-06-22T11:21:00;35.20;1.00
18779;DHT22;9518;51.720;14.384;2023-06-22T11:23:27;34.90;1.00
18779;DHT22;9518;51.720;14.384;2023-06-22T11:25:54;34.60;1.00
18779;DHT22;9518;51.720;14.384;2023-06-22T11:28:21;34.50;1.00
18779;DHT22;9518;51.720;14.384;2023-06-22T11:30:49;35.30;1.00
18779;DHT22;9518;51.720;14.384;2023-06-22T11:33:16;36.20;1.00
18779;DHT22;9518;51.720;14.384;2023-06-22T11:35:43;36.70;1.00
18779;DHT22;9518;51.720;14.384;2023-06-22T11:38:10;36.40;1.00
18779;DHT22;9518;51.720;14.384;2023-06-22T11:40:37;36.10;1.00
18779;DHT22;9518;51.720;14.384;2023-06-22T11:43:04;35.70;1.00
18779;DHT22;9518;51.720;14.384;2023-06-22T11:45:31;35.40;1.00
18779;DHT22;9518;51.720;14.384;2023-06-22T11:47:59;35.30;1.00
18779;DHT22;9518;51.720;14.384;2023-06-22T11:50:26;35.20;1.00
18779;DHT22;9518;51.720;14.384;2023-06-22T11:52:55;34.90;1.00
18779;DHT22;9518;51.720;14.384;2023-06-22T11:55:22;34.50;1.00
18779;DHT22;9518;51.720;14.384;2023-06-22T11:57:55;34.40;1.00
18779;DHT22;9518;51.720;14.384;2023-06-22T12:00:22;34.20;1.00
18779;DHT22;9518;51.720;14.384;2023-06-22T12:02:49;34.60;1.00
18779;DHT22;9518;51.720;14.384;2023-06-22T12:05:19;35.50;1.00
18779;DHT22;9518;51.720;14.384;2023-06-22T12:07:47;35.90;1.00
18779;DHT22;9518;51.720;14.384;2023-06-22T12:10:14;36.50;1.00
18779;DHT22;9518;51.720;14.384;2023-06-22T12:12:41;36.80;1.00
18779;DHT22;9518;51.720;14.384;2023-06-22T12:15:09;36.40;1.00
18779;DHT22;9518;51.720;14.384;2023-06-22T12:17:36;35.90;1.00
18779;DHT22;9518;51.720;14.384;2023-06-22T12:20:05;35.30;1.00
18779;DHT22;9518;51.720;14.384;2023-06-22T12:22:34;34.80;1.00
18779;DHT22;9518;51.720;14.384;2023-06-22T12:25:03;34.40;1.00
18779;DHT22;9518;51.720;14.384;2023-06-22T12:27:31;34.00;1.00
18779;DHT22;9518;51.720;14.384;2023-06-22T12:29:58;34.30;1.00
18779;DHT22;9518;51.720;14.384;2023-06-22T12:32:26;34.50;1.00
18779;DHT22;9518;51.720;14.384;2023-06-22T12:34:53;35.00;1.00
18779;DHT22;9518;51.720;14.384;2023-06-22T12:37:20;35.30;1.00
18779;DHT22;9518;51.720;14.384;2023-06-22T12:39:48;36.00;1.00
18779;DHT22;9518;51.720;14.384;2023-06-22T12:42:15;36.70;1.00
18779;DHT22;9518;51.720;14.384;2023-06-22T12:44:42;36.80;1.00
18779;DHT22;9518;51.720;14.384;2023-06-22T12:47:10;37.10;1.00
18779;DHT22;9518;51.720;14.384;2023-06-22T12:49:37;36.80;1.00
18779;DHT22;9518;51.720;14.384;2023-06-22T12:52:09;36.10;1.00
18779;DHT22;9518;51.720;14.384;2023-06-22T12:54:36;35.50;1.00
18779;DHT22;9518;51.720;14.384;2023-06-22T12:57:05;34.90;99.90
18779;DHT22;9518;51.720;14.384;2023-06-22T12:59:33;34.60;99.90
18779;DHT22;9518;51.720;14.384;2023-06-22T13:01:59;34.60;99.90
18779;DHT22;9518;51.720;14.384;2023-06-22T13:04:26;34.70;99.90
18779;DHT22;9518;51.720;14.384;2023-06-22T13:06:53;34.70;99.90
18779;DHT22;9518;51.720;14.384;2023-06-22T13:09:20;34.60;99.90
18779;DHT22;9518;51.720;14.384;2023-06-22T13:11:47;34.70;99.90
18779;DHT22;9518;51.720;14.384;2023-06-22T13:14:16;34.90;99.90
18779;DHT22;9518;51.720;14.384;2023-06-22T13:16:43;34.70;99.90
18779;DHT22;9518;51.720;14.384;2023-06-22T13:19:10;34.80;99.90
18779;DHT22;9518;51.720;14.384;2023-06-22T13:21:37;35.20;1.00
18779;DHT22;9518;51.720;14.384;2023-06-22T13:24:05;35.40;1.00
18779;DHT22;9518;51.720;14.384;2023-06-22T13:26:32;35.80;1.00
18779;DHT22;9518;51.720;14.384;2023-06-22T13:29:00;36.00;1.00
18779;DHT22;9518;51.720;14.384;2023-06-22T13:31:28;35.80;1.00
18779;DHT22;9518;51.720;14.384;2023-06-22T13:33:55;35.70;1.00
18779;DHT22;9518;51.720;14.384;2023-06-22T13:36:22;36.00;1.00
18779;DHT22;9518;51.720;14.384;2023-06-22T13:38:49;36.40;1.00
18779;DHT22;9518;51.720;14.384;2023-06-22T13:41:17;37.00;1.00
18779;DHT22;9518;51.720;14.384;2023-06-22T13:43:43;37.80;1.00
18779;DHT22;9518;51.720;14.384;2023-06-22T13:46:13;38.30;1.00
18779;DHT22;9518;51.720;14.384;2023-06-22T13:48:42;39.00;1.00
18779;DHT22;9518;51.720;14.384;2023-06-22T13:51:08;38.60;1.00
18779;DHT22;9518;51.720;14.384;2023-06-22T13:53:35;39.40;1.00
18779;DHT22;9518;51.720;14.384;2023-06-22T13:56:03;39.60;1.00
18779;DHT22;9518;51.720;14.384;2023-06-22T13:58:30;40.10;1.00
18779;DHT22;9518;51.720;14.384;2023-06-22T14:00:57;39.90;1.00
18779;DHT22;9518;51.720;14.384;2023-06-22T14:03:24;40.40;1.00
18779;DHT22;9518;51.720;14.384;2023-06-22T14:05:52;40.50;1.00
18779;DHT22;9518;51.720;14.384;2023-06-22T14:08:22;40.30;1.00
18779;DHT22;9518;51.720;14.384;2023-06-22T14:10:50;40.40;1.00
18779;DHT22;9518;51.720;14.384;2023-06-22T14:13:19;40.20;1.00
18779;DHT22;9518;51.720;14.384;2023-06-22T14:15:46;40.00;1.00
18779;DHT22;9518;51.720;14.384;2023-06-22T14:18:13;39.60;1.00
18779;DHT22;9518;51.720;14.384;2023-06-22T14:20:41;39.10;1.00
18779;DHT22;9518;51.720;14.384;2023-06-22T14:23:09;38.50;99.90
18779;DHT22;9518;51.720;14.384;2023-06-22T14:25:36;38.30;99.90
18779;DHT22;9518;51.720;14.384;2023-06-22T14:28:03;39.10;1.00
18779;DHT22;9518;51.720;14.384;2023-06-22T14:30:30;39.60;1.00
18779;DHT22;9518;51.720;14.384;2023-06-22T14:32:57;40.30;1.00
18779;DHT22;9518;51.720;14.384;2023-06-22T14:35:24;41.20;1.00
18779;DHT22;9518;51.720;14.384;2023-06-22T14:37:51;41.80;1.00
18779;DHT22;9518;51.720;14.384;2023-06-22T14:40:19;41.70;1.00
18779;DHT22;9518;51.720;14.384;2023-06-22T14:42:46;41.70;1.00
18779;DHT22;9518;51.720;14.384;2023-06-22T14:45:13;41.50;1.00
18779;DHT22;9518;51.720;14.384;2023-06-22T14:47:40;40.00;99.90
18779;DHT22;9518;51.720;14.384;2023-06-22T14:50:08;38.60;99.90
18779;DHT22;9518;51.720;14.384;2023-06-22T14:52:35;37.90;99.90
18779;DHT22;9518;51.720;14.384;2023-06-22T14:55:02;37.90;99.90
18779;DHT22;9518;51.720;14.384;2023-06-22T14:57:30;38.90;99.90
18779;DHT22;9518;51.720;14.384;2023-06-22T14:59:57;39.40;99.90
18779;DHT22;9518;51.720;14.384;2023-06-22T15:02:26;40.40;99.90
18779;DHT22;9518;51.720;14.384;2023-06-22T15:04:53;41.10;1.00
18779;DHT22;9518;51.720;14.384;2023-06-22T15:07:20;40.90;1.00
18779;DHT22;9518;51.720;14.384;2023-06-22T15:09:47;41.30;1.00
18779;DHT22;9518;51.720;14.384;2023-06-22T15:12:14;41.30;99.90
18779;DHT22;9518;51.720;14.384;2023-06-22T15:14:43;41.20;1.00
18779;DHT22;9518;51.720;14.384;2023-06-22T15:17:10;41.60;1.00
18779;DHT22;9518;51.720;14.384;2023-06-22T15:19:39;41.50;1.00
18779;DHT22;9518;51.720;14.384;2023-06-22T15:22:07;41.20;99.90
18779;DHT22;9518;51.720;14.384;2023-06-22T15:24:34;41.00;99.90
18779;DHT22;9518;51.720;14.384;2023-06-22T15:27:02;40.00;99.90
18779;DHT22;9518;51.720;14.384;2023-06-22T15:29:29;38.10;99.90
18779;DHT22;9518;51.720;14.384;2023-06-22T15:32:01;37.10;99.90
18779;DHT22;9518;51.720;14.384;2023-06-22T15:34:28;37.40;99.90
18779;DHT22;9518;51.720;14.384;2023-06-22T15:36:55;38.50;99.90
18779;DHT22;9518;51.720;14.384;2023-06-22T15:39:22;39.40;99.90
18779;DHT22;9518;51.720;14.384;2023-06-22T15:41:52;39.90;99.90
18779;DHT22;9518;51.720;14.384;2023-06-22T15:44:20;40.40;99.90
18779;DHT22;9518;51.720;14.384;2023-06-22T15:46:47;40.40;99.90
18779;DHT22;9518;51.720;14.384;2023-06-22T15:49:16;41.00;99.90